DLH2ER LEMG-LETL
Flight info
| Callsign | DLH2ER |
|---|---|
| Flight time | 0h 58m |
| Altitude | 34000 |
| Route | VIBAS M985 BAZAS DCT CATON DCT MANDY |
| Aircraft | A320/M-SDE3FGHIRWY/LB1 |
Departure
| Time | 2026-05-07 07:38 |
|---|---|
| Airport | Málaga-Costa del Sol Airport (LEMG) |
Arrival
| Time | 2026-05-07 08:36 |
|---|---|
| Airport | Teruel Airport (LETL) |
| Time | Latitude | Longitude | Altitude | Speed | Heading |
|---|---|---|---|---|---|
| 2026-05-07 07:19 | 36.67765 | -4.48699 | 42 ft | 0 kts | 207° |
| 2026-05-07 07:30 | 36.67780 | -4.48690 | 39 ft | 3 kts | 208° |
| 2026-05-07 07:30 | 36.67797 | -4.48678 | 39 ft | 3 kts | 209° |
| 2026-05-07 07:30 | 36.67815 | -4.48665 | 40 ft | 3 kts | 210° |
| 2026-05-07 07:31 | 36.67833 | -4.48653 | 40 ft | 3 kts | 210° |
| 2026-05-07 07:31 | 36.67850 | -4.48641 | 38 ft | 2 kts | 208° |
| 2026-05-07 07:31 | 36.67858 | -4.48644 | 40 ft | 2 kts | 146° |
| 2026-05-07 07:31 | 36.67849 | -4.48625 | 40 ft | 3 kts | 116° |
| 2026-05-07 07:32 | 36.67841 | -4.48602 | 41 ft | 3 kts | 115° |
| 2026-05-07 07:32 | 36.67836 | -4.48589 | 42 ft | 1 kts | 115° |
| 2026-05-07 07:32 | 36.67834 | -4.48584 | 42 ft | 0 kts | 115° |
| 2026-05-07 07:34 | 36.67827 | -4.48567 | 41 ft | 5 kts | 116° |
| 2026-05-07 07:35 | 36.67796 | -4.48494 | 41 ft | 12 kts | 118° |
| 2026-05-07 07:35 | 36.67761 | -4.48411 | 42 ft | 10 kts | 117° |
| 2026-05-07 07:35 | 36.67731 | -4.48340 | 40 ft | 9 kts | 117° |
| 2026-05-07 07:35 | 36.67704 | -4.48273 | 42 ft | 10 kts | 117° |
| 2026-05-07 07:36 | 36.67684 | -4.48174 | 40 ft | 12 kts | 66° |
| 2026-05-07 07:36 | 36.67769 | -4.48122 | 38 ft | 17 kts | 27° |
| 2026-05-07 07:36 | 36.67880 | -4.48049 | 36 ft | 17 kts | 29° |
| 2026-05-07 07:36 | 36.67959 | -4.48061 | 38 ft | 10 kts | 287° |
| 2026-05-07 07:37 | 36.67991 | -4.48130 | 38 ft | 8 kts | 297° |
| 2026-05-07 07:37 | 36.68028 | -4.48219 | 36 ft | 17 kts | 297° |
| 2026-05-07 07:37 | 36.68182 | -4.48583 | 40 ft | 83 kts | 298° |
| 2026-05-07 07:37 | 36.68548 | -4.49457 | 48 ft | 140 kts | 297° |
| 2026-05-07 07:38 | 36.69041 | -4.50638 | 470 ft | 153 kts | 298° |
| 2026-05-07 07:38 | 36.69625 | -4.51768 | 1137 ft | 157 kts | 311° |
| 2026-05-07 07:38 | 36.70444 | -4.52704 | 1711 ft | 166 kts | 317° |
| 2026-05-07 07:38 | 36.71308 | -4.53790 | 2052 ft | 187 kts | 313° |
| 2026-05-07 07:39 | 36.72241 | -4.55045 | 2398 ft | 206 kts | 312° |
| 2026-05-07 07:39 | 36.73250 | -4.56409 | 2931 ft | 218 kts | 312° |
| 2026-05-07 07:39 | 36.74286 | -4.57800 | 3809 ft | 220 kts | 313° |
| 2026-05-07 07:39 | 36.75401 | -4.59084 | 4617 ft | 223 kts | 327° |
| 2026-05-07 07:40 | 36.76839 | -4.59830 | 5443 ft | 226 kts | 343° |
| 2026-05-07 07:40 | 36.78362 | -4.60382 | 6264 ft | 229 kts | 343° |
| 2026-05-07 07:40 | 36.79916 | -4.60878 | 7049 ft | 233 kts | 353° |
| 2026-05-07 07:40 | 36.81541 | -4.60751 | 7821 ft | 237 kts | 15° |
| 2026-05-07 07:41 | 36.83082 | -4.59838 | 8310 ft | 256 kts | 38° |
| 2026-05-07 07:41 | 36.84442 | -4.58342 | 9037 ft | 264 kts | 41° |
| 2026-05-07 07:41 | 36.85829 | -4.56798 | 9762 ft | 270 kts | 41° |
| 2026-05-07 07:41 | 36.87242 | -4.55236 | 10093 ft | 273 kts | 41° |
| 2026-05-07 07:42 | 36.88671 | -4.53660 | 10784 ft | 275 kts | 41° |
| 2026-05-07 07:42 | 36.90100 | -4.52084 | 11231 ft | 275 kts | 41° |
| 2026-05-07 07:42 | 36.91539 | -4.50499 | 12029 ft | 277 kts | 41° |
| 2026-05-07 07:42 | 36.92994 | -4.48894 | 12818 ft | 280 kts | 41° |
| 2026-05-07 07:43 | 36.94448 | -4.47289 | 13550 ft | 284 kts | 41° |
| 2026-05-07 07:43 | 36.95940 | -4.45642 | 14290 ft | 287 kts | 41° |
| 2026-05-07 07:43 | 36.97439 | -4.43965 | 15003 ft | 291 kts | 45° |
| 2026-05-07 07:43 | 36.98711 | -4.41965 | 15540 ft | 302 kts | 58° |
| 2026-05-07 07:44 | 36.99804 | -4.39609 | 15708 ft | 325 kts | 60° |
| 2026-05-07 07:44 | 37.00966 | -4.37065 | 15843 ft | 347 kts | 60° |
| 2026-05-07 07:44 | 37.02191 | -4.34376 | 16140 ft | 362 kts | 60° |
| 2026-05-07 07:44 | 37.03451 | -4.31618 | 16706 ft | 367 kts | 60° |
| 2026-05-07 07:45 | 37.04731 | -4.28829 | 17324 ft | 372 kts | 60° |
| 2026-05-07 07:45 | 37.06032 | -4.26000 | 17902 ft | 376 kts | 60° |
| 2026-05-07 07:45 | 37.07346 | -4.23142 | 18518 ft | 380 kts | 60° |
| 2026-05-07 07:45 | 37.08665 | -4.20266 | 19098 ft | 383 kts | 60° |
| 2026-05-07 07:46 | 37.10000 | -4.17346 | 19661 ft | 387 kts | 60° |
| 2026-05-07 07:46 | 37.11329 | -4.14439 | 20204 ft | 391 kts | 60° |
| 2026-05-07 07:46 | 37.12684 | -4.11472 | 20787 ft | 393 kts | 60° |
| 2026-05-07 07:46 | 37.14043 | -4.08492 | 21354 ft | 395 kts | 60° |
| 2026-05-07 07:47 | 37.15411 | -4.05486 | 21876 ft | 398 kts | 60° |
| 2026-05-07 07:47 | 37.16789 | -4.02460 | 22382 ft | 400 kts | 60° |
| 2026-05-07 07:47 | 37.18184 | -3.99424 | 22862 ft | 403 kts | 58° |
| 2026-05-07 07:47 | 37.19811 | -3.96532 | 23327 ft | 406 kts | 53° |
| 2026-05-07 07:48 | 37.21490 | -3.93663 | 23787 ft | 409 kts | 53° |
| 2026-05-07 07:48 | 37.23181 | -3.90769 | 24236 ft | 412 kts | 53° |
| 2026-05-07 07:48 | 37.24878 | -3.87861 | 24663 ft | 415 kts | 53° |
| 2026-05-07 07:48 | 37.26588 | -3.84922 | 25074 ft | 418 kts | 53° |
| 2026-05-07 07:49 | 37.28282 | -3.82002 | 25465 ft | 421 kts | 54° |
| 2026-05-07 07:49 | 37.30028 | -3.78982 | 25868 ft | 424 kts | 54° |
| 2026-05-07 07:49 | 37.31741 | -3.76020 | 26266 ft | 426 kts | 54° |
| 2026-05-07 07:49 | 37.33510 | -3.72964 | 26649 ft | 428 kts | 54° |
| 2026-05-07 07:50 | 37.35246 | -3.69964 | 27007 ft | 431 kts | 54° |
| 2026-05-07 07:50 | 37.37018 | -3.66902 | 27353 ft | 435 kts | 54° |
| 2026-05-07 07:50 | 37.38808 | -3.63827 | 27705 ft | 437 kts | 52° |
| 2026-05-07 07:50 | 37.40844 | -3.60970 | 28043 ft | 440 kts | 45° |
| 2026-05-07 07:51 | 37.42984 | -3.58208 | 28383 ft | 442 kts | 45° |
| 2026-05-07 07:51 | 37.45142 | -3.55424 | 28748 ft | 444 kts | 45° |
| 2026-05-07 07:51 | 37.47302 | -3.52631 | 29103 ft | 446 kts | 45° |
| 2026-05-07 07:51 | 37.49457 | -3.49838 | 29489 ft | 446 kts | 45° |
| 2026-05-07 07:52 | 37.51631 | -3.47016 | 29668 ft | 446 kts | 46° |
| 2026-05-07 07:52 | 37.53799 | -3.44198 | 29832 ft | 450 kts | 46° |
| 2026-05-07 07:52 | 37.55959 | -3.41386 | 30087 ft | 453 kts | 46° |
| 2026-05-07 07:52 | 37.58156 | -3.38524 | 30376 ft | 455 kts | 46° |
| 2026-05-07 07:53 | 37.60366 | -3.35646 | 30646 ft | 458 kts | 46° |
| 2026-05-07 07:53 | 37.62584 | -3.32756 | 30916 ft | 460 kts | 46° |
| 2026-05-07 07:53 | 37.64817 | -3.29844 | 31181 ft | 462 kts | 46° |
| 2026-05-07 07:53 | 37.67053 | -3.26922 | 31457 ft | 464 kts | 46° |
| 2026-05-07 07:54 | 37.69296 | -3.23983 | 31825 ft | 463 kts | 46° |
| 2026-05-07 07:54 | 37.71519 | -3.21061 | 32225 ft | 461 kts | 46° |
| 2026-05-07 07:54 | 37.73824 | -3.18243 | 32613 ft | 459 kts | 39° |
| 2026-05-07 07:54 | 37.76369 | -3.15818 | 32977 ft | 458 kts | 36° |
| 2026-05-07 07:55 | 37.78945 | -3.13458 | 33366 ft | 456 kts | 36° |
| 2026-05-07 07:55 | 37.81516 | -3.11101 | 33727 ft | 455 kts | 36° |
| 2026-05-07 07:55 | 37.83212 | -3.09543 | 33918 ft | 456 kts | 36° |
| 2026-05-07 07:56 | 37.89111 | -3.04107 | 34008 ft | 445 kts | 36° |
| 2026-05-07 07:56 | 37.93260 | -3.00270 | 34008 ft | 443 kts | 36° |
| 2026-05-07 07:57 | 37.98238 | -2.95650 | 34009 ft | 443 kts | 36° |
| 2026-05-07 07:57 | 38.03217 | -2.91019 | 34009 ft | 445 kts | 36° |
| 2026-05-07 07:58 | 38.08237 | -2.86363 | 34006 ft | 446 kts | 36° |
| 2026-05-07 07:58 | 38.13219 | -2.81737 | 33998 ft | 446 kts | 36° |
| 2026-05-07 07:59 | 38.18229 | -2.77074 | 34012 ft | 445 kts | 36° |
| 2026-05-07 07:59 | 38.23219 | -2.72413 | 33923 ft | 444 kts | 36° |
| 2026-05-07 07:59 | 38.25695 | -2.70093 | 33299 ft | 438 kts | 36° |
| 2026-05-07 08:00 | 38.28135 | -2.67804 | 32418 ft | 433 kts | 36° |
| 2026-05-07 08:00 | 38.30541 | -2.65549 | 31550 ft | 427 kts | 36° |
| 2026-05-07 08:00 | 38.32921 | -2.63315 | 30687 ft | 421 kts | 36° |
| 2026-05-07 08:00 | 38.35270 | -2.61110 | 29815 ft | 416 kts | 36° |
| 2026-05-07 08:01 | 38.37554 | -2.58966 | 28974 ft | 411 kts | 36° |
| 2026-05-07 08:01 | 38.39842 | -2.56821 | 28135 ft | 404 kts | 36° |
| 2026-05-07 08:01 | 38.42090 | -2.54712 | 27301 ft | 399 kts | 36° |
| 2026-05-07 08:01 | 38.44308 | -2.52631 | 26471 ft | 393 kts | 36° |
| 2026-05-07 08:02 | 38.46497 | -2.50573 | 25632 ft | 388 kts | 36° |
| 2026-05-07 08:02 | 38.48662 | -2.48531 | 24851 ft | 387 kts | 36° |
| 2026-05-07 08:02 | 38.50820 | -2.46493 | 24387 ft | 384 kts | 36° |
| 2026-05-07 08:02 | 38.52940 | -2.44485 | 23702 ft | 377 kts | 36° |
| 2026-05-07 08:03 | 38.55042 | -2.42495 | 22842 ft | 374 kts | 36° |
| 2026-05-07 08:03 | 38.57129 | -2.40520 | 22035 ft | 370 kts | 36° |
| 2026-05-07 08:03 | 38.59163 | -2.38599 | 21276 ft | 366 kts | 36° |
| 2026-05-07 08:03 | 38.61198 | -2.36676 | 20509 ft | 361 kts | 36° |
| 2026-05-07 08:04 | 38.63207 | -2.34777 | 19750 ft | 357 kts | 36° |
| 2026-05-07 08:04 | 38.65190 | -2.32899 | 18997 ft | 353 kts | 36° |
| 2026-05-07 08:04 | 38.67149 | -2.31039 | 18250 ft | 348 kts | 36° |
| 2026-05-07 08:04 | 38.69082 | -2.29201 | 17523 ft | 344 kts | 36° |
| 2026-05-07 08:05 | 38.70997 | -2.27377 | 16806 ft | 340 kts | 36° |
| 2026-05-07 08:05 | 38.72887 | -2.25581 | 16110 ft | 337 kts | 36° |
| 2026-05-07 08:05 | 38.74760 | -2.23799 | 15420 ft | 333 kts | 36° |
| 2026-05-07 08:05 | 38.76622 | -2.22027 | 14999 ft | 332 kts | 36° |
| 2026-05-07 08:06 | 38.78471 | -2.20266 | 14656 ft | 330 kts | 36° |
| 2026-05-07 08:06 | 38.80312 | -2.18513 | 14402 ft | 329 kts | 36° |
| 2026-05-07 08:06 | 38.82120 | -2.16788 | 14157 ft | 328 kts | 36° |
| 2026-05-07 08:06 | 38.83955 | -2.15032 | 13905 ft | 326 kts | 36° |
| 2026-05-07 08:07 | 38.85768 | -2.13298 | 13655 ft | 325 kts | 36° |
| 2026-05-07 08:07 | 38.87580 | -2.11565 | 13405 ft | 324 kts | 36° |
| 2026-05-07 08:07 | 38.89383 | -2.09842 | 13154 ft | 323 kts | 36° |
| 2026-05-07 08:07 | 38.91183 | -2.08122 | 12905 ft | 321 kts | 36° |
| 2026-05-07 08:08 | 38.92973 | -2.06412 | 12647 ft | 320 kts | 36° |
| 2026-05-07 08:08 | 38.94735 | -2.04728 | 12398 ft | 319 kts | 36° |
| 2026-05-07 08:08 | 38.96511 | -2.03027 | 12161 ft | 318 kts | 36° |
| 2026-05-07 08:08 | 38.98279 | -2.01330 | 11908 ft | 316 kts | 36° |
| 2026-05-07 08:09 | 39.00038 | -1.99638 | 11653 ft | 315 kts | 36° |
| 2026-05-07 08:09 | 39.01794 | -1.97945 | 11402 ft | 314 kts | 37° |
| 2026-05-07 08:09 | 39.03539 | -1.96266 | 11153 ft | 313 kts | 36° |
| 2026-05-07 08:09 | 39.05276 | -1.94594 | 10901 ft | 311 kts | 36° |
| 2026-05-07 08:10 | 39.06991 | -1.92942 | 10651 ft | 310 kts | 36° |
| 2026-05-07 08:10 | 39.08717 | -1.91282 | 10402 ft | 309 kts | 36° |
| 2026-05-07 08:10 | 39.10439 | -1.89626 | 10146 ft | 308 kts | 36° |
| 2026-05-07 08:10 | 39.12152 | -1.87978 | 9918 ft | 304 kts | 36° |
| 2026-05-07 08:11 | 39.13815 | -1.86374 | 9797 ft | 294 kts | 37° |
| 2026-05-07 08:11 | 39.15444 | -1.84797 | 9665 ft | 292 kts | 37° |
| 2026-05-07 08:11 | 39.17069 | -1.83224 | 9542 ft | 291 kts | 37° |
| 2026-05-07 08:11 | 39.18685 | -1.81661 | 9415 ft | 290 kts | 37° |
| 2026-05-07 08:12 | 39.20304 | -1.80094 | 9289 ft | 290 kts | 37° |
| 2026-05-07 08:12 | 39.21894 | -1.78555 | 9165 ft | 289 kts | 37° |
| 2026-05-07 08:12 | 39.23499 | -1.77000 | 9041 ft | 289 kts | 37° |
| 2026-05-07 08:12 | 39.25105 | -1.75444 | 8915 ft | 288 kts | 37° |
| 2026-05-07 08:13 | 39.26711 | -1.73889 | 8790 ft | 288 kts | 37° |
| 2026-05-07 08:13 | 39.28312 | -1.72338 | 8664 ft | 287 kts | 37° |
| 2026-05-07 08:13 | 39.29912 | -1.70787 | 8539 ft | 287 kts | 37° |
| 2026-05-07 08:13 | 39.31507 | -1.69239 | 8413 ft | 286 kts | 37° |
| 2026-05-07 08:14 | 39.33099 | -1.67693 | 8288 ft | 286 kts | 37° |
| 2026-05-07 08:14 | 39.34669 | -1.66167 | 8159 ft | 285 kts | 37° |
| 2026-05-07 08:14 | 39.36254 | -1.64624 | 8035 ft | 285 kts | 37° |
| 2026-05-07 08:14 | 39.37837 | -1.63083 | 7918 ft | 284 kts | 37° |
| 2026-05-07 08:15 | 39.39413 | -1.61547 | 7781 ft | 284 kts | 37° |
| 2026-05-07 08:15 | 39.40990 | -1.60007 | 7662 ft | 283 kts | 37° |
| 2026-05-07 08:15 | 39.42560 | -1.58474 | 7534 ft | 282 kts | 37° |
| 2026-05-07 08:15 | 39.44128 | -1.56945 | 7404 ft | 282 kts | 37° |
| 2026-05-07 08:16 | 39.45693 | -1.55419 | 7295 ft | 281 kts | 37° |
| 2026-05-07 08:16 | 39.47251 | -1.53896 | 7151 ft | 281 kts | 37° |
| 2026-05-07 08:16 | 39.48789 | -1.52389 | 7037 ft | 280 kts | 37° |
| 2026-05-07 08:16 | 39.50344 | -1.50865 | 6914 ft | 280 kts | 37° |
| 2026-05-07 08:17 | 39.51894 | -1.49350 | 6783 ft | 279 kts | 37° |
| 2026-05-07 08:17 | 39.53444 | -1.47834 | 6662 ft | 279 kts | 37° |
| 2026-05-07 08:17 | 39.54995 | -1.46318 | 6542 ft | 278 kts | 37° |
| 2026-05-07 08:17 | 39.56538 | -1.44808 | 6409 ft | 278 kts | 37° |
| 2026-05-07 08:18 | 39.58084 | -1.43294 | 6285 ft | 278 kts | 37° |
| 2026-05-07 08:18 | 39.59621 | -1.41783 | 6159 ft | 277 kts | 37° |
| 2026-05-07 08:18 | 39.61140 | -1.40289 | 6035 ft | 277 kts | 37° |
| 2026-05-07 08:18 | 39.62674 | -1.38780 | 5910 ft | 277 kts | 37° |
| 2026-05-07 08:19 | 39.64207 | -1.37272 | 5784 ft | 276 kts | 37° |
| 2026-05-07 08:19 | 39.65741 | -1.35762 | 5659 ft | 276 kts | 37° |
| 2026-05-07 08:19 | 39.67271 | -1.34253 | 5532 ft | 275 kts | 37° |
| 2026-05-07 08:19 | 39.68792 | -1.32755 | 5397 ft | 270 kts | 37° |
| 2026-05-07 08:20 | 39.70238 | -1.31332 | 5279 ft | 258 kts | 37° |
| 2026-05-07 08:20 | 39.71633 | -1.29957 | 5152 ft | 246 kts | 37° |
| 2026-05-07 08:20 | 39.72968 | -1.28640 | 5027 ft | 236 kts | 37° |
| 2026-05-07 08:20 | 39.74246 | -1.27380 | 4895 ft | 226 kts | 37° |
| 2026-05-07 08:21 | 39.75477 | -1.26166 | 4777 ft | 218 kts | 37° |
| 2026-05-07 08:21 | 39.76666 | -1.24992 | 4648 ft | 211 kts | 37° |
| 2026-05-07 08:21 | 39.77822 | -1.23852 | 4520 ft | 207 kts | 37° |
| 2026-05-07 08:21 | 39.78965 | -1.22726 | 4514 ft | 205 kts | 37° |
| 2026-05-07 08:22 | 39.80085 | -1.21565 | 4600 ft | 207 kts | 41° |
| 2026-05-07 08:22 | 39.81106 | -1.20236 | 4701 ft | 208 kts | 48° |
| 2026-05-07 08:22 | 39.82025 | -1.18785 | 4801 ft | 208 kts | 51° |
| 2026-05-07 08:22 | 39.82935 | -1.17321 | 4959 ft | 209 kts | 51° |
| 2026-05-07 08:23 | 39.83853 | -1.15846 | 5012 ft | 210 kts | 50° |
| 2026-05-07 08:23 | 39.84761 | -1.14391 | 5018 ft | 209 kts | 51° |
| 2026-05-07 08:23 | 39.85664 | -1.12939 | 5012 ft | 203 kts | 51° |
| 2026-05-07 08:23 | 39.86544 | -1.11520 | 5014 ft | 200 kts | 51° |
| 2026-05-07 08:24 | 39.87414 | -1.10118 | 5015 ft | 199 kts | 51° |
| 2026-05-07 08:24 | 39.88281 | -1.08720 | 5013 ft | 198 kts | 51° |
| 2026-05-07 08:24 | 39.89151 | -1.07321 | 5017 ft | 199 kts | 51° |
| 2026-05-07 08:24 | 39.90021 | -1.05920 | 5014 ft | 199 kts | 51° |
| 2026-05-07 08:25 | 39.91047 | -1.04748 | 5013 ft | 197 kts | 21° |
| 2026-05-07 08:25 | 39.92380 | -1.04382 | 5015 ft | 197 kts | 4° |
| 2026-05-07 08:25 | 39.93745 | -1.04274 | 5100 ft | 195 kts | 2° |
| 2026-05-07 08:25 | 39.95119 | -1.04205 | 5335 ft | 198 kts | 1° |
| 2026-05-07 08:26 | 39.97883 | -1.04119 | 5830 ft | 200 kts | 358° |
| 2026-05-07 08:26 | 39.99262 | -1.04303 | 5981 ft | 201 kts | 350° |
| 2026-05-07 08:26 | 40.00590 | -1.04765 | 6008 ft | 199 kts | 328° |
| 2026-05-07 08:27 | 40.01696 | -1.05885 | 6015 ft | 199 kts | 316° |
| 2026-05-07 08:27 | 40.02688 | -1.07138 | 6176 ft | 199 kts | 315° |
| 2026-05-07 08:27 | 40.03668 | -1.08414 | 6189 ft | 201 kts | 314° |
| 2026-05-07 08:27 | 40.04655 | -1.09709 | 6208 ft | 201 kts | 314° |
| 2026-05-07 08:28 | 40.05633 | -1.10992 | 6212 ft | 193 kts | 314° |
| 2026-05-07 08:28 | 40.06547 | -1.12188 | 6227 ft | 180 kts | 316° |
| 2026-05-07 08:28 | 40.07600 | -1.13012 | 5913 ft | 177 kts | 348° |
| 2026-05-07 08:28 | 40.08814 | -1.13151 | 5600 ft | 175 kts | 359° |
| 2026-05-07 08:29 | 40.10032 | -1.13187 | 5237 ft | 175 kts | 353° |
| 2026-05-07 08:29 | 40.11200 | -1.13534 | 5134 ft | 169 kts | 343° |
| 2026-05-07 08:29 | 40.12339 | -1.13994 | 5209 ft | 174 kts | 341° |
| 2026-05-07 08:29 | 40.13451 | -1.14621 | 5213 ft | 174 kts | 328° |
| 2026-05-07 08:30 | 40.14457 | -1.15512 | 5215 ft | 175 kts | 323° |
| 2026-05-07 08:30 | 40.15434 | -1.16460 | 5216 ft | 175 kts | 322° |
| 2026-05-07 08:30 | 40.16403 | -1.17362 | 5220 ft | 168 kts | 332° |
| 2026-05-07 08:30 | 40.17502 | -1.17819 | 5216 ft | 166 kts | 353° |
| 2026-05-07 08:31 | 40.18650 | -1.17910 | 5218 ft | 165 kts | 353° |
| 2026-05-07 08:31 | 40.19781 | -1.18127 | 5217 ft | 164 kts | 346° |
| 2026-05-07 08:31 | 40.20853 | -1.18533 | 5101 ft | 161 kts | 341° |
| 2026-05-07 08:31 | 40.21916 | -1.18998 | 4783 ft | 161 kts | 340° |
| 2026-05-07 08:32 | 40.22956 | -1.19520 | 4720 ft | 161 kts | 334° |
| 2026-05-07 08:32 | 40.23960 | -1.20178 | 4718 ft | 162 kts | 332° |
| 2026-05-07 08:32 | 40.24960 | -1.20868 | 4718 ft | 162 kts | 331° |
| 2026-05-07 08:32 | 40.25958 | -1.21560 | 4715 ft | 162 kts | 332° |
| 2026-05-07 08:33 | 40.27039 | -1.21950 | 4717 ft | 163 kts | 355° |
| 2026-05-07 08:33 | 40.28173 | -1.21839 | 4720 ft | 164 kts | 11° |
| 2026-05-07 08:33 | 40.29276 | -1.21500 | 4916 ft | 163 kts | 14° |
| 2026-05-07 08:33 | 40.30388 | -1.21150 | 5021 ft | 164 kts | 8° |
| 2026-05-07 08:34 | 40.31512 | -1.21062 | 5139 ft | 164 kts | 357° |
| 2026-05-07 08:34 | 40.32654 | -1.21175 | 5200 ft | 165 kts | 354° |
| 2026-05-07 08:34 | 40.33797 | -1.21300 | 5108 ft | 163 kts | 356° |
| 2026-05-07 08:34 | 40.34893 | -1.21362 | 4859 ft | 153 kts | 357° |
| 2026-05-07 08:35 | 40.35956 | -1.21434 | 4439 ft | 155 kts | 355° |
| 2026-05-07 08:35 | 40.37028 | -1.21499 | 4157 ft | 149 kts | 357° |
| 2026-05-07 08:35 | 40.38077 | -1.21570 | 3808 ft | 151 kts | 355° |
| 2026-05-07 08:35 | 40.39081 | -1.21643 | 3572 ft | 143 kts | 358° |
| 2026-05-07 08:36 | 40.40035 | -1.21695 | 3390 ft | 133 kts | 357° |
| 2026-05-07 08:36 | 40.40855 | -1.21745 | 3349 ft | 98 kts | 357° |
| 2026-05-07 08:36 | 40.41362 | -1.21769 | 3339 ft | 48 kts | 358° |
| 2026-05-07 08:36 | 40.41579 | -1.21776 | 3332 ft | 25 kts | 0° |
| 2026-05-07 08:37 | 40.41692 | -1.21780 | 3329 ft | 8 kts | 293° |
| 2026-05-07 08:37 | 40.41663 | -1.21797 | 3330 ft | 8 kts | 181° |
| 2026-05-07 08:37 | 40.41607 | -1.21790 | 3331 ft | 8 kts | 174° |
| 2026-05-07 08:37 | 40.41518 | -1.21782 | 3333 ft | 18 kts | 179° |
| 2026-05-07 08:38 | 40.41391 | -1.21809 | 3342 ft | 18 kts | 240° |
| 2026-05-07 08:38 | 40.41369 | -1.21942 | 3336 ft | 15 kts | 270° |
| 2026-05-07 08:38 | 40.41351 | -1.22061 | 3342 ft | 12 kts | 218° |
| 2026-05-07 08:38 | 40.41271 | -1.22073 | 3338 ft | 10 kts | 177° |
| 2026-05-07 08:39 | 40.41201 | -1.22070 | 3345 ft | 10 kts | 178° |
| 2026-05-07 08:39 | 40.41134 | -1.22068 | 3342 ft | 5 kts | 179° |
| 2026-05-07 08:39 | 40.41098 | -1.22067 | 3349 ft | 5 kts | 179° |
| 2026-05-07 08:39 | 40.41066 | -1.22067 | 3348 ft | 4 kts | 179° |
| 2026-05-07 08:40 | 40.41049 | -1.22084 | 3344 ft | 3 kts | 242° |
| 2026-05-07 08:40 | 40.41045 | -1.22119 | 3346 ft | 5 kts | 265° |
| 2026-05-07 08:40 | 40.41044 | -1.22163 | 3344 ft | 5 kts | 267° |
| 2026-05-07 08:40 | 40.41043 | -1.22198 | 3344 ft | 0 kts | 267° |
| 2026-05-07 08:41 | 40.41043 | -1.22199 | 3344 ft | 0 kts | 268° |